メインページ
METAR-TAF:

METAR-TAF

空港 :

アントファガスタ, チリ

セロ・モレノ国際空港

緯度: 23-26S, 経度: 070-26W, 海抜: 135m

現時点の気象観測

当レポートは17分前の06:00(UTC)に作成
の風 2kt
気温 17°C
湿度 88%
気圧 1014 hPa
視程10km以上
1,500メートル以下は雲なし、積乱雲なし

METAR: SCFA 280600Z 01002KT CAVOK 17/15 Q1014 NOSIG

時間: 03:17 (06:17 UTC)

予報

当レポートは2時間5分前の04:12(UTC)に作成
予報は28日の 06時(UTC)から 29日の 06時(UTC)まで有効
東/南東の風 2kt
視程10km以上
1,500メートル以下は雲なし、積乱雲なし
28日の 10時(UTC)から 28日の 12時(UTC)まで徐々に
南/南東の風 4kt
28日の 16時(UTC)から 28日の 18時(UTC)まで徐々に
南/南西の風 12kt
高度2300ftの雲はほとんどない
29日の 00時(UTC)から 29日の 02時(UTC)まで徐々に
の風 8kt
高度1800ftの雲は散在している

TAF: SCFA 280412Z 2806/2906 12002KT CAVOK TN17/2806Z TX22/2816Z BECMG 2810/2812 16004KT BECMG 2816/2818 21012KT FEW023 BECMG 2900/2902 18008KT SCT018

4,000以上の空港の気象観測と天気予報(METAR報とTAF報)

利用可能な観測所は地図上に黄色い丸と赤い丸で示す。

丸の上にカーソルを重ねると観測所名を参照できる。

次にクリックすると気象観測と天気予報を参照できる。

マップの切り替え:黒色「×」印の緑ボタンをクリックして拡大、「-」印の緑ボタンをクリックして縮小、緑色の三角印をクリックして隣りの地図に切り替え


METAR-TAF: